Main page
METAR-TAF:

METAR-TAF

Airports :

Léopold Sédar Senghor International Airport

Dakar, Senegal

latitude: 14-44N, longitude: 017-30W, elevation: 27 m

Current weather observation

The report was made 53 minutes ago, at 20:00 UTC
Wind 10 kt from the North/Northeast
Temperature 23°C
Humidity 78%
Pressure 1008 hPa
Visibility 10 km or more
no clouds below 1500 m and no cumulonimbus

METAR: GOOY 092000Z 02010KT CAVOK 23/19 Q1008

Time: 20:53 (20:53 UTC)

Forecast

The report was made 3 hours and 23 minutes ago, at 17:30 UTC
Forecast valid from 09 at 18 UTC to 10 at 24 UTC
Wind 14 kt from the North
Visibility 10 km or more
no clouds below 1500 m and no cumulonimbus

TAF: GOOY 091730Z 0918/1024 01014KT CAVOK

Weather observations and forecasts of more than 4000 airports (METAR and TAF reports).

The available stations are represented by yellow and red dots on the map.

Hover mouse over dot to see the name of the station.

Then click to see weather observations and forecasts.

To change the map : click on the green buttons with a black cross to zoom in, on the green button with a dash to zoom out, or on the green arrows for adjacent maps.


METAR-TAF: